Time;durP1;ratioP1;P1;durP2;ratioP2;P2;SDS_P1;SDS_P2;PMS_P1;PMS_P2;Temp;Humidity;BMP_temperature;BMP_pressure;BME280_temperature;BME280_humidity;BME280_pressure;Samples;Min_cycle;Max_cycle;Signal;HPM_P1;HPM_P2
2023/10/06 00:00:18;;;;;;;9.02;3.45;;;;;;;-146.27;76.96;82115.00;5024859;28;20029;-70
2023/10/06 00:02:44;;;;;;;9.55;3.65;;;;;;;-146.27;77.09;82092.91;5022313;28;20108;-70
2023/10/06 00:05:11;;;;;;;12.68;3.22;;;;;;;-146.27;77.64;82133.09;5024394;28;20029;-70
2023/10/06 00:07:36;;;;;;;8.88;3.47;;;;;;;-146.27;76.96;82064.81;5017683;28;20021;-70
2023/10/06 00:10:07;;;;;;;15.02;4.10;;;;;;;-146.27;77.89;82147.16;5024990;28;20110;-69
2023/10/06 00:12:33;;;;;;;15.40;3.22;;;;;;;-146.27;77.92;82149.16;5022046;28;20067;-70
2023/10/06 00:14:59;;;;;;;11.25;4.20;;;;;;;-146.27;78.62;82175.28;5011956;28;20053;-68
2023/10/06 00:17:28;;;;;;;8.27;3.50;;;;;;;-146.27;77.30;82115.00;5019022;28;20410;-67
2023/10/06 00:19:59;;;;;;;14.13;3.63;;;;;;;-146.27;77.70;82165.22;5030142;28;20032;-67
2023/10/06 00:22:26;;;;;;;13.00;3.80;;;;;;;-146.27;78.27;82191.34;5028158;28;20032;-66
2023/10/06 00:24:58;;;;;;;9.63;3.33;;;;;;;-146.27;78.64;82171.25;5022516;28;20025;-67
2023/10/06 00:27:24;;;;;;;13.73;4.03;;;;;;;-146.27;79.07;82235.53;5021086;28;20441;-67
2023/10/06 00:29:56;;;;;;;16.23;4.22;;;;;;;-146.27;78.01;82189.34;5025079;28;20025;-68
2023/10/06 00:32:24;;;;;;;17.75;3.75;;;;;;;-146.27;78.38;82171.25;5021442;28;20547;-68
2023/10/06 00:34:51;;;;;;;8.77;3.03;;;;;;;-146.27;78.19;82127.06;5030357;28;20025;-67
2023/10/06 00:37:22;;;;;;;8.30;3.25;;;;;;;-146.27;78.20;82155.19;5022241;28;20017;-67
2023/10/06 00:39:50;;;;;;;7.40;3.05;;;;;;;-146.27;78.79;82239.56;5025704;28;20025;-68
2023/10/06 00:42:18;;;;;;;18.55;3.00;;;;;;;-146.27;78.76;82183.31;5023992;28;20040;-66
2023/10/06 00:44:45;;;;;;;13.55;3.63;;;;;;;-146.27;78.10;82199.38;5026293;28;20096;-67
2023/10/06 00:47:11;;;;;;;16.45;3.53;;;;;;;-146.27;77.31;82141.13;5026190;28;20040;-67
2023/10/06 00:49:37;;;;;;;12.93;2.95;;;;;;;-146.27;77.50;82171.25;5025291;28;20036;-67
2023/10/06 00:52:06;;;;;;;13.52;3.35;;;;;;;-146.27;76.96;82179.28;5022921;28;20071;-67
2023/10/06 00:54:32;;;;;;;10.73;3.42;;;;;;;-146.27;77.78;82225.50;5020215;28;20028;-67
2023/10/06 00:57:08;;;;;;;8.40;2.80;;;;;;;-146.27;77.75;82223.47;5026515;28;20030;-67
2023/10/06 00:59:37;;;;;;;8.52;2.75;;;;;;;-146.27;77.49;82191.34;5020473;28;20029;-69
2023/10/06 01:02:08;;;;;;;9.68;2.28;;;;;;;-146.27;77.57;82185.31;5025435;28;20029;-69
2023/10/06 01:04:38;;;;;;;11.88;2.83;;;;;;;-146.27;76.88;82159.22;5029795;28;20065;-69
2023/10/06 01:07:04;;;;;;;8.00;2.67;;;;;;;-146.27;77.06;82163.22;5025610;28;20067;-68
2023/10/06 01:09:35;;;;;;;14.27;3.17;;;;;;;-146.27;76.59;82175.28;5022939;28;20068;-68
2023/10/06 01:12:05;;;;;;;14.50;2.83;;;;;;;-146.27;77.03;82221.47;5015312;28;20068;-68
2023/10/06 01:14:34;;;;;;;9.95;2.40;;;;;;;-146.27;77.04;82265.66;5024180;28;20060;-68
2023/10/06 01:19:35;;;;;;;6.55;1.90;;;;;;;-146.27;77.72;82249.59;5028623;28;20080;-67
2023/10/06 01:22:41;;;;;;;9.68;2.30;;;;;;;-146.27;77.37;82227.50;5028994;28;20132;-68
2023/10/06 01:24:55;;;;;;;9.18;2.47;;;;;;;-146.27;77.02;82187.31;5020511;28;20035;-66
2023/10/06 01:27:30;;;;;;;10.38;3.10;;;;;;;-146.27;77.07;82197.38;5015347;28;20041;-67
2023/10/06 01:32:43;;;;;;;11.38;2.60;;;;;;;-146.27;77.95;82297.81;5022546;28;20053;-67
2023/10/06 01:35:12;;;;;;;8.70;2.03;;;;;;;-146.27;76.36;82187.31;5030872;28;20086;-67
2023/10/06 01:37:42;;;;;;;9.27;2.70;;;;;;;-146.27;76.21;82165.22;5026574;28;20021;-69
2023/10/06 01:40:24;;;;;;;19.27;3.88;;;;;;;-146.27;76.32;82195.38;5025760;28;20026;-66
2023/10/06 01:42:50;;;;;;;13.90;2.58;;;;;;;-146.27;75.30;82127.06;5025859;28;20983;-66
2023/10/06 01:45:21;;;;;;;7.18;2.58;;;;;;;-146.27;77.18;82255.63;5017963;28;20100;-66
2023/10/06 01:47:47;;;;;;;13.63;2.88;;;;;;;-146.27;77.54;82229.50;5024364;28;20128;-66
2023/10/06 01:50:13;;;;;;;9.00;2.47;;;;;;;-146.27;76.55;82255.63;5025749;28;20033;-67
2023/10/06 01:52:39;;;;;;;15.32;2.47;;;;;;;-146.27;76.41;82211.44;5022521;28;20429;-67
2023/10/06 01:55:21;;;;;;;10.68;2.47;;;;;;;-146.27;75.90;82179.28;5022807;28;20709;-66
2023/10/06 01:57:47;;;;;;;7.97;2.63;;;;;;;-146.27;76.84;82241.56;5029476;28;20636;-66
2023/10/06 02:00:16;;;;;;;11.43;2.85;;;;;;;-146.27;76.99;82239.56;5026225;28;20030;-67
2023/10/06 02:02:41;;;;;;;12.35;2.70;;;;;;;-146.27;76.41;82217.47;5023453;28;20030;-67
2023/10/06 02:05:12;;;;;;;7.10;2.72;;;;;;;-146.27;76.40;82231.53;5028225;28;20535;-66
2023/10/06 02:07:40;;;;;;;6.78;3.03;;;;;;;-146.27;76.38;82221.47;5030258;28;20063;-66
2023/10/06 02:10:12;;;;;;;9.85;2.53;;;;;;;-146.27;76.44;82213.44;5030051;28;20029;-67
2023/10/06 02:12:37;;;;;;;11.95;2.75;;;;;;;-146.27;76.62;82231.53;5028906;28;20033;-66
2023/10/06 02:15:10;;;;;;;7.68;2.60;;;;;;;-146.27;77.12;82239.56;5027604;28;20103;-67
2023/10/06 02:17:42;;;;;;;13.75;3.97;;;;;;;-146.27;78.33;82311.88;5025053;28;20021;-66
2023/10/06 02:23:03;;;;;;;10.85;3.25;;;;;;;-146.27;77.42;82269.69;5034208;28;20029;-66
2023/10/06 02:25:29;;;;;;;13.85;3.92;;;;;;;-146.27;76.61;82171.25;5026195;28;20099;-66
2023/10/06 02:27:54;;;;;;;10.02;3.00;;;;;;;-146.27;76.46;82205.41;5021840;28;20033;-65
2023/10/06 02:30:33;;;;;;;10.23;2.45;;;;;;;-146.27;76.03;82263.66;5020080;28;20544;-66
2023/10/06 02:33:06;;;;;;;7.07;2.55;;;;;;;-146.27;77.22;82249.59;5021939;28;20037;-65
2023/10/06 02:35:34;;;;;;;8.73;2.90;;;;;;;-146.27;77.67;82263.66;5025002;28;20461;-68
2023/10/06 02:38:05;;;;;;;7.50;2.58;;;;;;;-146.27;77.87;82295.81;5027333;28;20182;-68
2023/10/06 02:40:37;;;;;;;10.73;2.70;;;;;;;-146.27;78.21;82307.84;5016020;28;21102;-67
2023/10/06 02:43:03;;;;;;;10.00;2.80;;;;;;;-146.27;78.03;82305.84;5022316;28;20040;-66
2023/10/06 02:45:37;;;;;;;5.95;2.88;;;;;;;-146.27;78.63;82313.88;5016315;28;20078;-68
2023/10/06 02:48:14;;;;;;;8.27;2.75;;;;;;;-146.27;77.54;82251.59;5018804;28;20034;-68
2023/10/06 02:50:44;;;;;;;10.90;3.35;;;;;;;-146.27;77.20;82247.59;5014426;28;20396;-68
2023/10/06 02:53:20;;;;;;;11.98;3.63;;;;;;;-146.27;77.41;82239.56;5029487;28;20034;-67
2023/10/06 02:55:48;;;;;;;8.50;3.22;;;;;;;-146.27;77.84;82279.72;5030697;28;20029;-68
2023/10/06 02:58:24;;;;;;;7.40;2.65;;;;;;;-146.27;77.92;82279.72;5026062;28;20051;-68
2023/10/06 03:00:50;;;;;;;10.15;2.67;;;;;;;-146.27;77.85;82275.72;5014144;28;20026;-68
2023/10/06 03:03:18;;;;;;;9.48;2.95;;;;;;;-146.27;78.82;82344.00;5025022;28;20033;-68
2023/10/06 03:05:51;;;;;;;8.93;2.83;;;;;;;-146.27;78.09;82275.72;5028967;28;20028;-68
2023/10/06 03:08:20;;;;;;;8.00;2.78;;;;;;;-146.27;77.92;82289.78;5028968;28;20033;-68
2023/10/06 03:10:48;;;;;;;13.90;3.17;;;;;;;-146.27;78.80;82348.03;5030319;28;20021;-68
2023/10/06 03:13:24;;;;;;;10.50;3.33;;;;;;;-146.27;78.08;82291.78;5021324;28;20021;-68
2023/10/06 03:15:50;;;;;;;14.57;3.42;;;;;;;-146.27;78.41;82352.03;5022944;28;20066;-68
2023/10/06 03:18:16;;;;;;;5.53;2.70;;;;;;;-146.27;77.64;82239.56;5024629;28;20115;-68
2023/10/06 03:20:49;;;;;;;9.93;3.13;;;;;;;-146.27;77.98;82303.84;5027946;28;20483;-68
2023/10/06 03:25:57;;;;;;;10.35;3.90;;;;;;;-146.27;77.55;82275.72;5027706;28;20037;-68
2023/10/06 03:28:36;;;;;;;10.18;3.00;;;;;;;-146.27;77.55;82283.75;5028839;28;20025;-68
2023/10/06 03:33:50;;;;;;;9.77;2.55;;;;;;;-146.27;78.34;82315.88;5023403;28;20037;-68
2023/10/06 03:36:21;;;;;;;8.48;2.78;;;;;;;-146.27;78.05;82277.72;5030193;28;20087;-68
2023/10/06 03:38:56;;;;;;;13.88;2.70;;;;;;;-146.27;77.50;82265.66;5028311;28;20449;-67
2023/10/06 03:41:31;;;;;;;10.10;2.38;;;;;;;-146.27;78.43;82319.91;5017535;28;20033;-67
2023/10/06 03:44:00;;;;;;;10.70;3.30;;;;;;;-146.27;77.88;82299.81;5027143;28;20026;-67
2023/10/06 03:46:25;;;;;;;11.82;2.70;;;;;;;-146.27;77.36;82211.44;5017328;28;20112;-67
2023/10/06 03:48:52;;;;;;;16.08;5.43;;;;;;;-146.27;77.92;82291.78;5021513;28;20105;-67
2023/10/06 03:51:20;;;;;;;9.88;3.00;;;;;;;-146.27;78.41;82327.94;5029756;28;20473;-67
2023/10/06 03:53:48;;;;;;;11.65;3.10;;;;;;;-146.27;77.37;82259.66;5032485;28;20116;-68
2023/10/06 03:56:17;;;;;;;10.75;3.75;;;;;;;-146.27;77.24;82241.56;5027906;28;20021;-70
2023/10/06 03:58:44;;;;;;;13.10;3.00;;;;;;;-146.27;77.13;82237.53;5030399;28;20036;-67
2023/10/06 04:01:11;;;;;;;13.73;3.17;;;;;;;-146.27;78.26;82261.66;5031302;28;20084;-68
2023/10/06 04:03:40;;;;;;;13.93;5.10;;;;;;;-146.27;78.43;82329.94;5020075;28;20114;-68
2023/10/06 04:06:12;;;;;;;8.75;3.33;;;;;;;-146.27;78.12;82321.91;5027423;28;20033;-68
2023/10/06 04:08:38;;;;;;;7.97;3.33;;;;;;;-146.27;78.67;82329.94;5030754;28;20115;-68
2023/10/06 04:11:04;;;;;;;11.68;3.40;;;;;;;-146.27;78.90;82337.97;5025934;28;20079;-68
2023/10/06 04:13:31;;;;;;;12.73;2.95;;;;;;;-146.27;78.15;82247.59;5030619;28;20039;-68
2023/10/06 04:15:58;;;;;;;11.75;3.50;;;;;;;-146.27;78.23;82297.81;5025882;28;20082;-68
2023/10/06 04:18:24;;;;;;;22.33;4.03;;;;;;;-146.27;78.69;82285.75;5028062;28;20033;-68
2023/10/06 04:20:54;;;;;;;8.45;3.20;;;;;;;-146.27;78.24;82265.66;5028600;28;20025;-68
2023/10/06 04:23:23;;;;;;;11.20;3.47;;;;;;;-146.27;78.93;82344.00;5024365;28;20037;-68
2023/10/06 04:25:54;;;;;;;9.52;3.22;;;;;;;-146.27;79.37;82368.13;5033189;28;20018;-67
2023/10/06 04:28:22;;;;;;;10.10;3.65;;;;;;;-146.27;79.37;82301.81;5033419;28;20469;-67
2023/10/06 04:30:49;;;;;;;9.80;3.25;;;;;;;-146.27;78.38;82321.91;5027006;28;20036;-68
2023/10/06 04:33:15;;;;;;;10.63;4.00;;;;;;;-146.27;78.90;82277.72;5032414;28;20099;-68
2023/10/06 04:35:49;;;;;;;13.00;3.70;;;;;;;-146.27;78.56;82303.84;5031405;28;20029;-68
2023/10/06 04:38:14;;;;;;;14.73;3.00;;;;;;;-146.27;79.07;82299.81;5030667;28;20033;-68
2023/10/06 04:40:43;;;;;;;15.80;2.97;;;;;;;-146.27;77.85;82227.50;5022979;28;20478;-68
2023/10/06 04:43:09;;;;;;;12.35;3.55;;;;;;;-146.27;79.09;82259.66;5024855;28;20060;-67
2023/10/06 04:45:38;;;;;;;8.13;2.80;;;;;;;-146.27;79.08;82279.72;5028388;28;20029;-67
2023/10/06 04:48:12;;;;;;;12.65;3.35;;;;;;;-146.27;78.16;82285.75;5029151;28;20039;-67
2023/10/06 04:50:37;;;;;;;;;;;;;;;-146.27;78.66;82217.47;5027156;28;20240;-67
2023/10/06 04:53:06;;;;;;;13.30;3.85;;;;;;;-146.27;78.71;82267.69;5027691;28;19920;-67
2023/10/06 04:55:37;;;;;;;7.90;3.25;;;;;;;-146.27;78.74;82321.91;5029048;28;20511;-66
2023/10/06 04:58:09;;;;;;;13.80;3.53;;;;;;;-146.27;79.91;82356.06;5018569;28;20021;-67
2023/10/06 05:00:34;;;;;;;12.80;3.83;;;;;;;-146.27;79.31;82311.88;5026749;28;20119;-66
2023/10/06 05:03:06;;;;;;;11.48;3.47;;;;;;;-146.27;78.38;82251.59;5030376;28;20529;-66
2023/10/06 05:05:36;;;;;;;10.70;3.88;;;;;;;-146.27;79.08;82271.69;5029439;28;20033;-65
2023/10/06 05:08:02;;;;;;;15.35;4.95;;;;;;;-146.27;79.25;82267.69;5030533;28;20482;-67
2023/10/06 05:10:30;;;;;;;13.15;4.32;;;;;;;-146.27;79.45;82323.91;5023574;28;20045;-67
2023/10/06 05:12:55;;;;;;;12.45;3.83;;;;;;;-146.27;79.47;82285.75;5027559;28;20531;-66
2023/10/06 05:15:23;;;;;;;15.23;3.72;;;;;;;-146.27;79.34;82291.78;5027218;28;20041;-66
2023/10/06 05:18:07;;;;;;;11.25;4.03;;;;;;;-146.27;78.23;82241.56;5019126;28;20053;-66
2023/10/06 05:20:35;;;;;;;13.43;3.33;;;;;;;-146.27;78.65;82303.84;5022879;28;20379;-66
2023/10/06 05:23:11;;;;;;;12.55;4.68;;;;;;;-146.27;78.96;82249.59;5013935;28;20105;-66
2023/10/06 05:25:37;;;;;;;13.00;4.03;;;;;;;-146.27;79.90;82364.09;5026080;28;20036;-67
2023/10/06 05:28:04;;;;;;;16.35;3.97;;;;;;;-146.27;80.44;82329.94;5023863;28;20025;-66
2023/10/06 05:30:30;;;;;;;8.88;3.72;;;;;;;-146.27;79.48;82317.91;5031439;28;20028;-66
2023/10/06 05:33:00;;;;;;;10.88;3.95;;;;;;;-146.27;78.61;82203.41;5030732;28;20060;-66
2023/10/06 05:35:29;;;;;;;12.27;5.03;;;;;;;-146.27;79.17;82313.88;5019976;28;20095;-65
2023/10/06 05:37:55;;;;;;;8.13;4.20;;;;;;;-146.27;78.84;82293.78;5028792;28;20029;-66
2023/10/06 05:40:20;;;;;;;11.90;4.18;;;;;;;-146.27;78.57;82245.59;5030353;28;20037;-66
2023/10/06 05:42:49;;;;;;;9.23;4.75;;;;;;;-146.27;79.69;82319.91;5030289;28;20029;-66
2023/10/06 05:45:18;;;;;;;17.20;4.60;;;;;;;-146.27;78.41;82245.59;5029003;28;20033;-65
2023/10/06 05:47:48;;;;;;;13.40;4.35;;;;;;;-146.27;78.02;82231.53;5028668;28;20113;-66
2023/10/06 05:50:29;;;;;;;8.43;3.90;;;;;;;-146.27;78.40;82217.47;5019224;28;20163;-68
2023/10/06 05:53:04;;;;;;;11.98;4.10;;;;;;;-146.27;78.12;82251.59;5027916;28;20060;-67
2023/10/06 05:55:35;;;;;;;14.20;4.65;;;;;;;-146.27;79.35;82335.97;5027466;28;20529;-67
2023/10/06 05:58:03;;;;;;;18.52;4.63;;;;;;;-146.27;79.55;82311.88;5014716;28;20528;-66
2023/10/06 06:00:32;;;;;;;12.85;4.38;;;;;;;-146.27;79.35;82295.81;5029723;28;20025;-67
2023/10/06 06:03:10;;;;;;;14.40;4.05;;;;;;;-146.27;79.93;82293.78;5023114;28;20561;-67
2023/10/06 06:05:38;;;;;;;16.38;4.60;;;;;;;-146.27;79.93;82323.91;5026021;28;20026;-67
2023/10/06 06:08:08;;;;;;;13.23;4.25;;;;;;;-146.27;81.20;82352.03;5031346;28;20029;-68
2023/10/06 06:10:35;;;;;;;10.45;4.70;;;;;;;-146.27;79.85;82297.81;5026802;28;20029;-67
2023/10/06 06:13:01;;;;;;;15.15;4.80;;;;;;;-146.27;79.96;82364.09;5026005;28;20456;-66
2023/10/06 06:15:27;;;;;;;15.20;5.10;;;;;;;-146.27;79.64;82295.81;5010039;28;20095;-66
2023/10/06 06:17:53;;;;;;;14.70;4.25;;;;;;;-146.27;79.30;82265.66;5020380;28;20030;-67
2023/10/06 06:20:21;;;;;;;16.83;5.32;;;;;;;-146.27;80.70;82333.97;5020151;28;20096;-67
2023/10/06 06:22:53;;;;;;;12.68;4.88;;;;;;;-146.27;80.89;82360.09;5020894;28;20041;-67
2023/10/06 06:25:21;;;;;;;14.05;4.65;;;;;;;-146.27;80.34;82331.97;5020143;28;20548;-66
2023/10/06 06:27:47;;;;;;;14.35;4.53;;;;;;;-146.27;79.74;82267.69;5012599;28;20033;-67
2023/10/06 06:30:18;;;;;;;15.48;5.18;;;;;;;-146.27;79.80;82283.75;5026133;28;20508;-67
2023/10/06 06:32:50;;;;;;;11.02;4.22;;;;;;;-146.27;79.28;82249.59;5017601;28;20030;-66
2023/10/06 06:35:19;;;;;;;12.20;5.60;;;;;;;-146.27;79.75;82267.69;5017495;28;20075;-66
2023/10/06 06:37:50;;;;;;;13.10;5.05;;;;;;;-146.27;80.24;82325.94;5022396;28;20032;-66
2023/10/06 06:40:19;;;;;;;17.73;5.35;;;;;;;-146.27;80.59;82335.97;5028561;28;20033;-65
2023/10/06 06:42:47;;;;;;;14.18;4.75;;;;;;;-146.27;80.40;82283.75;5014972;28;20044;-65
2023/10/06 06:45:13;;;;;;;12.05;5.50;;;;;;;-146.27;80.74;82327.94;5010796;28;20028;-65
2023/10/06 06:47:41;;;;;;;15.15;5.13;;;;;;;-146.27;81.07;82335.97;5011887;28;20026;-66
2023/10/06 06:50:13;;;;;;;17.52;5.20;;;;;;;-146.27;80.37;82307.84;5010875;28;20049;-67
2023/10/06 06:52:39;;;;;;;13.15;4.68;;;;;;;-146.27;80.66;82327.94;5017658;28;20036;-69
2023/10/06 06:55:12;;;;;;;12.48;4.70;;;;;;;-146.27;80.83;82283.75;5027588;28;20036;-68
2023/10/06 06:57:38;;;;;;;15.75;4.95;;;;;;;-146.27;79.14;82199.38;5029973;28;20152;-68
2023/10/06 07:00:15;;;;;;;15.02;4.55;;;;;;;-146.27;79.79;82233.53;5030558;28;20388;-68
2023/10/06 07:02:40;;;;;;;11.18;4.45;;;;;;;-146.27;80.24;82273.72;5030703;28;20116;-67
2023/10/06 07:05:06;;;;;;;13.93;4.80;;;;;;;-146.27;80.33;82289.78;5030422;28;20159;-67
2023/10/06 07:07:32;;;;;;;10.27;4.60;;;;;;;-146.27;80.71;82291.78;5030744;28;20029;-68
2023/10/06 07:09:59;;;;;;;15.77;4.57;;;;;;;-146.27;80.22;82255.63;5027644;28;20109;-68
2023/10/06 07:12:24;;;;;;;11.88;4.65;;;;;;;-146.27;79.77;82235.53;5023521;28;20047;-68
2023/10/06 07:14:50;;;;;;;15.45;4.72;;;;;;;-146.27;80.61;82263.66;5026112;28;20689;-70
2023/10/06 07:17:15;;;;;;;13.55;4.90;;;;;;;-146.27;80.43;82271.69;5030211;28;20017;-69
2023/10/06 07:19:40;;;;;;;12.20;3.97;;;;;;;-146.27;79.19;82133.09;5030266;28;20405;-70
2023/10/06 07:22:06;;;;;;;13.38;4.32;;;;;;;-146.27;79.75;82223.47;5030064;28;20104;-69
2023/10/06 07:24:31;;;;;;;9.73;3.88;;;;;;;-146.27;79.70;82143.13;5028873;28;20056;-70
2023/10/06 07:26:56;;;;;;;11.65;4.32;;;;;;;-146.27;78.68;82084.88;5024955;28;20087;-69
2023/10/06 07:29:22;;;;;;;14.55;4.75;;;;;;;-146.27;78.50;82149.16;5030121;28;20053;-68
2023/10/06 07:31:48;;;;;;;15.77;4.03;;;;;;;-146.27;78.88;82117.03;5012523;28;20030;-67
2023/10/06 07:34:14;;;;;;;9.35;4.30;;;;;;;-146.27;79.43;82163.22;5009540;28;20026;-69
2023/10/06 07:36:42;;;;;;;11.00;3.90;;;;;;;-146.27;79.93;82173.28;5028467;28;20018;-69
2023/10/06 07:39:08;;;;;;;16.40;5.35;;;;;;;-146.27;80.14;82159.22;5016497;28;20060;-69
2023/10/06 07:41:34;;;;;;;10.68;4.80;;;;;;;-146.27;79.76;82102.97;5010115;28;20084;-68
2023/10/06 07:43:59;;;;;;;16.20;4.60;;;;;;;-146.27;79.34;82123.06;5010135;28;20042;-68
2023/10/06 07:46:26;;;;;;;12.43;4.03;;;;;;;-146.27;79.38;82098.94;5011212;28;20022;-69
2023/10/06 07:48:55;;;;;;;10.93;4.07;;;;;;;-146.27;78.74;82054.75;5029748;28;20036;-69
2023/10/06 07:51:21;;;;;;;16.98;4.43;;;;;;;-146.27;79.56;82100.97;5018125;28;20038;-70
2023/10/06 07:53:46;;;;;;;15.13;4.40;;;;;;;-146.27;78.90;82002.53;5013059;28;20053;-68
2023/10/06 07:56:14;;;;;;;15.75;4.63;;;;;;;-146.27;78.86;82028.66;5020530;28;20022;-69
2023/10/06 07:58:43;;;;;;;13.05;3.95;;;;;;;-146.27;78.57;82000.53;5025784;28;20465;-69
2023/10/06 08:01:10;;;;;;;11.98;3.80;;;;;;;-146.27;78.97;82022.63;5013420;28;20588;-69
2023/10/06 08:03:38;;;;;;;9.10;4.10;;;;;;;-146.27;78.96;82042.69;5015999;28;20026;-68
2023/10/06 08:06:05;;;;;;;13.52;4.00;;;;;;;-146.27;79.09;81990.47;5009831;28;20030;-68
2023/10/06 08:08:33;;;;;;;11.68;3.90;;;;;;;-146.27;79.28;82006.53;5029811;28;20022;-68
2023/10/06 08:11:02;;;;;;;9.75;4.05;;;;;;;-146.27;78.63;81986.47;5029412;28;20179;-68
2023/10/06 08:13:31;;;;;;;10.50;3.70;;;;;;;-146.27;78.96;81980.44;5028804;28;20033;-68
2023/10/06 08:16:00;;;;;;;10.13;4.22;;;;;;;-146.27;79.85;82070.81;5021599;28;20042;-69
2023/10/06 08:18:34;;;;;;;15.35;4.43;;;;;;;-146.27;79.48;82042.69;5016687;28;20393;-68
2023/10/06 08:21:03;;;;;;;12.48;3.63;;;;;;;-146.27;79.57;82018.59;5020858;28;20405;-68
2023/10/06 08:23:32;;;;;;;13.15;3.95;;;;;;;-146.27;78.87;81958.34;5022871;28;20025;-68
2023/10/06 08:25:58;;;;;;;9.63;3.67;;;;;;;-146.27;77.84;81861.94;5027920;28;20037;-67
2023/10/06 08:28:27;;;;;;;8.75;3.67;;;;;;;-146.27;78.18;81859.94;5012322;28;20037;-68
2023/10/06 08:30:52;;;;;;;8.98;3.58;;;;;;;-146.27;78.60;81886.03;5010211;28;20026;-68
2023/10/06 08:33:18;;;;;;;14.85;3.95;;;;;;;-146.27;78.39;81837.81;5030623;28;20535;-67
2023/10/06 08:35:44;;;;;;;15.15;3.28;;;;;;;-146.27;77.94;81781.59;5029852;28;20566;-68
2023/10/06 08:38:10;;;;;;;11.25;3.95;;;;;;;-146.27;78.36;81906.13;5016048;28;20397;-68
2023/10/06 08:40:42;;;;;;;17.77;4.55;;;;;;;-146.27;78.19;81821.75;5024486;28;20028;-68
2023/10/06 08:43:07;;;;;;;9.65;3.83;;;;;;;-146.27;78.09;81819.75;5034995;28;20028;-67
2023/10/06 08:45:41;;;;;;;16.55;4.05;;;;;;;-146.27;77.56;81763.50;5043834;28;20050;-67
2023/10/06 08:48:10;;;;;;;14.85;4.20;;;;;;;-146.27;77.88;81733.38;5040255;28;20029;-68
2023/10/06 08:50:37;;;;;;;12.60;3.85;;;;;;;-146.27;77.50;81739.41;5036149;28;20079;-67
2023/10/06 08:53:05;;;;;;;17.02;3.83;;;;;;;-146.27;78.87;81825.78;5046270;28;20017;-67
2023/10/06 08:55:31;;;;;;;12.15;4.22;;;;;;;-146.27;78.02;81737.41;5024111;28;20033;-68
2023/10/06 08:57:58;;;;;;;16.55;4.45;;;;;;;-146.27;77.88;81705.28;5032637;28;20539;-68
2023/10/06 09:00:25;;;;;;;20.55;3.42;;;;;;;-146.27;78.32;81749.47;5046929;28;20053;-68
2023/10/06 09:02:52;;;;;;;12.88;3.40;;;;;;;-146.27;77.50;81701.25;5018742;28;20022;-67
2023/10/06 09:05:19;;;;;;;11.57;3.47;;;;;;;-146.27;77.64;81693.22;5027841;28;20026;-68
2023/10/06 09:07:59;;;;;;;15.75;3.58;;;;;;;-146.27;77.64;81717.31;5021965;28;20037;-68
2023/10/06 09:10:26;;;;;;;13.52;3.78;;;;;;;-146.27;77.62;81632.97;5033316;28;20152;-68
2023/10/06 09:13:18;;;;;;;11.27;2.97;;;;;;;-146.27;77.67;81699.25;5042044;28;20064;-68
2023/10/06 09:15:56;;;;;;;11.82;3.33;;;;;;;-146.27;77.41;81693.22;5027370;28;20064;-67
2023/10/06 09:18:27;;;;;;;11.63;3.65;;;;;;;-146.27;78.13;81781.59;5026853;28;20393;-67
2023/10/06 09:20:54;;;;;;;19.55;4.15;;;;;;;-146.27;76.86;81624.94;5023432;28;20496;-66
2023/10/06 09:23:42;;;;;;;13.80;3.65;;;;;;;-146.27;77.40;81669.13;5036642;28;20369;-68
2023/10/06 09:26:11;;;;;;;17.23;3.70;;;;;;;-146.27;77.66;81689.19;5031156;28;20041;-69
2023/10/06 09:28:55;;;;;;;12.25;3.47;;;;;;;-146.27;77.54;81689.19;5025442;28;20029;-68
2023/10/06 09:31:44;;;;;;;15.00;3.63;;;;;;;-146.27;78.33;81753.47;5040884;28;20038;-68
2023/10/06 09:34:11;;;;;;;20.02;3.47;;;;;;;-146.27;77.86;81697.22;5036684;28;20037;-68
2023/10/06 09:36:38;;;;;;;16.88;3.25;;;;;;;-146.27;77.56;81669.13;5037929;28;20104;-68
2023/10/06 09:39:06;;;;;;;11.27;3.00;;;;;;;-146.27;77.98;81651.03;5019983;28;20564;-68
2023/10/06 09:41:34;;;;;;;15.95;3.67;;;;;;;-146.27;78.70;81725.34;5036835;28;20028;-68
2023/10/06 09:44:05;;;;;;;15.43;3.53;;;;;;;-146.27;79.06;81741.41;5029611;28;20034;-68
2023/10/06 09:46:34;;;;;;;11.30;2.97;;;;;;;-146.27;77.73;81570.69;5020145;28;20088;-68
2023/10/06 09:49:05;;;;;;;11.20;3.13;;;;;;;-146.27;77.40;81590.78;5005595;28;21548;-69
2023/10/06 09:51:33;;;;;;;16.27;3.60;;;;;;;-146.27;77.26;81584.75;5011498;28;20362;-69
2023/10/06 09:53:58;;;;;;;15.27;3.42;;;;;;;-146.27;77.22;81604.84;5023114;28;20036;-68
2023/10/06 09:56:24;;;;;;;12.23;3.67;;;;;;;-146.27;77.01;81560.66;5024471;28;20029;-68
2023/10/06 09:58:51;;;;;;;13.73;3.35;;;;;;;-146.27;77.13;81626.94;5046427;28;20029;-68
2023/10/06 10:01:17;;;;;;;12.05;3.35;;;;;;;-146.27;77.25;81600.84;5025787;28;20476;-68
2023/10/06 10:03:43;;;;;;;10.27;3.10;;;;;;;-146.27;77.07;81540.56;5039545;28;20170;-69
2023/10/06 10:06:09;;;;;;;10.10;3.25;;;;;;;-146.27;76.81;81544.59;5026584;28;20100;-68
2023/10/06 10:08:36;;;;;;;13.68;3.28;;;;;;;-146.27;77.24;81544.59;5034580;28;20062;-69
2023/10/06 10:11:07;;;;;;;13.00;3.10;;;;;;;-146.27;76.70;81464.25;5046508;28;20018;-69
2023/10/06 10:13:45;;;;;;;15.43;3.03;;;;;;;-146.27;77.40;81534.56;5029189;28;20039;-69
2023/10/06 10:16:31;;;;;;;24.23;3.50;;;;;;;-146.27;77.46;81548.59;5036549;28;20346;-69
2023/10/06 10:19:03;;;;;;;10.80;3.17;;;;;;;-146.27;77.94;81596.81;5032216;28;20055;-68
2023/10/06 10:21:29;;;;;;;16.85;3.42;;;;;;;-146.27;76.95;81526.53;5025861;28;20029;-68
2023/10/06 10:23:56;;;;;;;12.77;3.55;;;;;;;-146.27;75.87;81428.09;5023360;28;20036;-68
2023/10/06 10:26:25;;;;;;;16.65;3.28;;;;;;;-146.27;76.05;81391.97;5032186;28;20034;-69
2023/10/06 10:29:12;;;;;;;18.48;3.67;;;;;;;-146.27;75.96;81365.84;5046929;28;20033;-68
2023/10/06 10:31:37;;;;;;;10.18;2.70;;;;;;;-146.27;76.38;81436.16;5032997;28;20516;-68
2023/10/06 10:34:03;;;;;;;15.30;3.67;;;;;;;-146.27;77.34;81518.50;5032559;28;20115;-68
2023/10/06 10:36:29;;;;;;;17.17;3.22;;;;;;;-146.27;77.18;81512.47;5038431;28;20084;-68
2023/10/06 10:39:09;;;;;;;11.52;2.83;;;;;;;-146.27;77.21;81466.28;5037172;28;20502;-70
2023/10/06 10:41:36;;;;;;;10.57;3.17;;;;;;;-146.27;75.95;81363.84;5025097;28;20560;-69
2023/10/06 10:44:03;;;;;;;14.38;3.75;;;;;;;-146.27;75.33;81307.63;5022742;28;20058;-69
2023/10/06 10:46:42;;;;;;;15.27;3.00;;;;;;;-146.27;74.52;81189.13;5018263;28;20527;-69
2023/10/06 10:49:13;;;;;;;13.57;3.00;;;;;;;-146.27;74.63;81301.59;5029369;28;20025;-68
2023/10/06 10:51:55;;;;;;;12.18;2.47;;;;;;;-146.27;73.71;81239.34;5029604;28;20056;-69
2023/10/06 10:54:31;;;;;;;16.27;2.97;;;;;;;-146.27;72.95;81118.84;5017394;28;20049;-68
2023/10/06 10:57:05;;;;;;;13.10;3.03;;;;;;;-146.27;71.99;81074.66;5021451;28;20643;-68
2023/10/06 11:02:40;;;;;;;17.73;2.70;;;;;;;-146.27;71.79;81082.69;5033686;28;20037;-68
2023/10/06 11:05:06;;;;;;;11.60;3.08;;;;;;;-146.27;71.53;81006.38;5029444;28;20056;-67
2023/10/06 11:07:32;;;;;;;11.27;2.47;;;;;;;-146.27;71.77;81010.41;5038660;28;20526;-69
2023/10/06 11:09:57;;;;;;;10.73;2.78;;;;;;;-146.27;70.89;81000.34;5022985;28;20053;-68
2023/10/06 11:12:28;;;;;;;18.95;3.63;;;;;;;-146.27;70.95;81058.59;5024234;28;20374;-68
2023/10/06 11:15:02;;;;;;;14.00;3.20;;;;;;;-146.27;70.62;80940.13;5018737;28;20046;-70
2023/10/06 11:17:29;;;;;;;19.50;3.53;;;;;;;-146.27;70.00;80893.94;5024954;28;20227;-68
2023/10/06 11:20:13;;;;;;;13.07;2.78;;;;;;;-146.27;69.11;80713.22;5025182;28;20018;-67
2023/10/06 11:22:38;;;;;;;;;;;;;;;-146.27;67.11;80528.47;5028195;28;20417;-67
2023/10/06 11:25:06;;;;;;;13.68;2.63;;;;;;;-146.27;66.86;80612.81;5020206;28;19917;-68
2023/10/06 11:27:31;;;;;;;14.75;2.63;;;;;;;-146.27;64.64;80393.97;5013722;28;20281;-67
2023/10/06 11:29:57;;;;;;;9.45;2.10;;;;;;;-146.27;64.37;80347.78;5021125;28;20021;-67
2023/10/06 11:32:23;;;;;;;18.35;3.65;;;;;;;-146.27;62.94;80287.53;5028797;28;20025;-67
2023/10/06 11:34:50;;;;;;;11.30;2.38;;;;;;;-146.27;62.54;80092.78;5027208;28;20029;-67
2023/10/06 11:37:23;;;;;;;10.25;2.65;;;;;;;-146.27;60.43;79998.44;5041896;28;20017;-67